sensor_id;sensor_type;location;lat;lon;timestamp;pressure;altitude;pressure_sealevel;temperature;humidity
69622;BME280;56841;55.964;37.674;2023-04-04T00:01:39;99436.09;;;7.57;100.00
69622;BME280;56841;55.964;37.674;2023-04-04T00:04:06;99434.44;;;7.56;100.00
69622;BME280;56841;55.964;37.674;2023-04-04T00:06:32;99436.09;;;7.57;100.00
69622;BME280;56841;55.964;37.674;2023-04-04T00:08:57;99434.16;;;7.59;100.00
69622;BME280;56841;55.964;37.674;2023-04-04T00:11:25;99433.47;;;7.57;100.00
69622;BME280;56841;55.964;37.674;2023-04-04T00:13:51;99431.97;;;7.55;100.00
69622;BME280;56841;55.964;37.674;2023-04-04T00:16:17;99434.88;;;7.52;100.00
69622;BME280;56841;55.964;37.674;2023-04-04T00:18:42;99428.16;;;7.49;100.00
69622;BME280;56841;55.964;37.674;2023-04-04T00:21:08;99430.41;;;7.44;100.00
69622;BME280;56841;55.964;37.674;2023-04-04T00:23:34;99426.66;;;7.47;100.00
69622;BME280;56841;55.964;37.674;2023-04-04T00:26:00;99427.25;;;7.41;100.00
69622;BME280;56841;55.964;37.674;2023-04-04T00:28:25;99427.13;;;7.42;100.00
69622;BME280;56841;55.964;37.674;2023-04-04T00:30:51;99427.94;;;7.43;100.00
69622;BME280;56841;55.964;37.674;2023-04-04T00:33:17;99434.00;;;7.43;100.00
69622;BME280;56841;55.964;37.674;2023-04-04T00:35:43;99435.66;;;7.44;100.00
69622;BME280;56841;55.964;37.674;2023-04-04T00:38:08;99436.16;;;7.48;100.00
69622;BME280;56841;55.964;37.674;2023-04-04T00:40:46;99428.47;;;7.46;100.00
69622;BME280;56841;55.964;37.674;2023-04-04T00:43:14;99428.47;;;7.46;100.00
69622;BME280;56841;55.964;37.674;2023-04-04T00:45:42;99432.59;;;7.49;100.00
69622;BME280;56841;55.964;37.674;2023-04-04T00:48:08;99426.66;;;7.47;100.00
69622;BME280;56841;55.964;37.674;2023-04-04T00:50:34;99429.13;;;7.48;100.00
69622;BME280;56841;55.964;37.674;2023-04-04T00:53:00;99428.81;;;7.51;100.00
69622;BME280;56841;55.964;37.674;2023-04-04T00:55:26;99432.44;;;7.50;100.00
69622;BME280;56841;55.964;37.674;2023-04-04T00:57:52;99430.63;;;7.51;100.00
69622;BME280;56841;55.964;37.674;2023-04-04T01:00:18;99432.25;;;7.52;99.64
69622;BME280;56841;55.964;37.674;2023-04-04T01:02:45;99434.38;;;7.48;99.86
69622;BME280;56841;55.964;37.674;2023-04-04T01:05:12;99427.34;;;7.49;100.00
69622;BME280;56841;55.964;37.674;2023-04-04T01:07:39;99428.81;;;7.51;99.79
69622;BME280;56841;55.964;37.674;2023-04-04T01:10:06;99422.59;;;7.52;99.75
69622;BME280;56841;55.964;37.674;2023-04-04T01:12:33;99430.16;;;7.55;99.38
69622;BME280;56841;55.964;37.674;2023-04-04T01:15:00;99429.34;;;7.55;99.24
69622;BME280;56841;55.964;37.674;2023-04-04T01:17:26;99429.34;;;7.55;98.89
69622;BME280;56841;55.964;37.674;2023-04-04T01:20:00;99428.69;;;7.53;99.03
69622;BME280;56841;55.964;37.674;2023-04-04T01:22:32;99422.72;;;7.51;99.11
69622;BME280;56841;55.964;37.674;2023-04-04T01:25:00;99418.31;;;7.51;98.86
69622;BME280;56841;55.964;37.674;2023-04-04T01:27:28;99426.34;;;7.50;99.08
69622;BME280;56841;55.964;37.674;2023-04-04T01:30:03;99419.59;;;7.47;98.93
69622;BME280;56841;55.964;37.674;2023-04-04T01:32:40;99418.91;;;7.45;99.15
69622;BME280;56841;55.964;37.674;2023-04-04T01:38:21;99416.69;;;7.32;99.88
69622;BME280;56841;55.964;37.674;2023-04-04T01:40:53;99417.44;;;7.25;100.00
69622;BME280;56841;55.964;37.674;2023-04-04T01:43:21;99415.44;;;7.19;100.00
69622;BME280;56841;55.964;37.674;2023-04-04T01:45:47;99410.78;;;7.12;100.00
69622;BME280;56841;55.964;37.674;2023-04-04T01:48:15;99411.06;;;7.09;100.00
69622;BME280;56841;55.964;37.674;2023-04-04T01:50:43;99409.50;;;6.99;100.00
69622;BME280;56841;55.964;37.674;2023-04-04T01:53:09;99407.63;;;6.91;100.00
69622;BME280;56841;55.964;37.674;2023-04-04T01:55:35;99409.44;;;6.91;100.00
69622;BME280;56841;55.964;37.674;2023-04-04T01:58:02;99409.72;;;6.87;100.00
69622;BME280;56841;55.964;37.674;2023-04-04T02:00:28;99413.81;;;6.90;100.00
69622;BME280;56841;55.964;37.674;2023-04-04T02:02:53;99412.88;;;6.91;100.00
69622;BME280;56841;55.964;37.674;2023-04-04T02:05:19;99417.13;;;6.92;100.00
69622;BME280;56841;55.964;37.674;2023-04-04T02:07:47;99417.81;;;6.94;100.00
69622;BME280;56841;55.964;37.674;2023-04-04T02:10:22;99423.06;;;6.94;100.00
69622;BME280;56841;55.964;37.674;2023-04-04T02:12:48;99422.56;;;6.91;100.00
69622;BME280;56841;55.964;37.674;2023-04-04T02:15:20;99425.31;;;6.89;100.00
69622;BME280;56841;55.964;37.674;2023-04-04T02:17:47;99415.91;;;6.86;100.00
69622;BME280;56841;55.964;37.674;2023-04-04T02:20:13;99425.47;;;6.87;100.00
69622;BME280;56841;55.964;37.674;2023-04-04T02:22:39;99417.59;;;6.87;100.00
69622;BME280;56841;55.964;37.674;2023-04-04T02:25:05;99417.06;;;6.84;100.00
69622;BME280;56841;55.964;37.674;2023-04-04T02:27:31;99422.00;;;6.87;100.00
69622;BME280;56841;55.964;37.674;2023-04-04T02:29:57;99414.13;;;6.87;100.00
69622;BME280;56841;55.964;37.674;2023-04-04T02:32:23;99416.31;;;6.92;100.00
69622;BME280;56841;55.964;37.674;2023-04-04T02:34:49;99411.06;;;6.92;100.00
69622;BME280;56841;55.964;37.674;2023-04-04T02:37:16;99414.22;;;6.95;100.00
69622;BME280;56841;55.964;37.674;2023-04-04T02:39:43;99418.34;;;6.98;100.00
69622;BME280;56841;55.964;37.674;2023-04-04T02:42:09;99413.75;;;7.00;100.00
69622;BME280;56841;55.964;37.674;2023-04-04T02:44:34;99413.63;;;7.01;100.00
69622;BME280;56841;55.964;37.674;2023-04-04T02:47:01;99414.59;;;7.00;100.00
69622;BME280;56841;55.964;37.674;2023-04-04T02:49:29;99419.53;;;7.03;100.00
69622;BME280;56841;55.964;37.674;2023-04-04T02:51:56;99409.84;;;7.04;100.00
69622;BME280;56841;55.964;37.674;2023-04-04T02:54:23;99408.91;;;7.05;99.82
69622;BME280;56841;55.964;37.674;2023-04-04T02:56:49;99408.22;;;7.03;99.79
69622;BME280;56841;55.964;37.674;2023-04-04T02:59:15;99412.34;;;7.05;99.63
69622;BME280;56841;55.964;37.674;2023-04-04T03:01:42;99413.47;;;7.03;99.62
69622;BME280;56841;55.964;37.674;2023-04-04T03:04:08;99408.22;;;7.03;99.59
69622;BME280;56841;55.964;37.674;2023-04-04T03:06:34;99408.91;;;7.05;99.22
69622;BME280;56841;55.964;37.674;2023-04-04T03:09:00;99412.34;;;7.05;99.30
69622;BME280;56841;55.964;37.674;2023-04-04T03:11:27;99416.47;;;7.08;98.95
69622;BME280;56841;55.964;37.674;2023-04-04T03:13:53;99411.75;;;7.11;98.45
69622;BME280;56841;55.964;37.674;2023-04-04T03:16:29;99409.94;;;7.12;98.53
69622;BME280;56841;55.964;37.674;2023-04-04T03:18:56;99414.59;;;7.18;98.13
69622;BME280;56841;55.964;37.674;2023-04-04T03:21:21;99420.69;;;7.19;97.71
69622;BME280;56841;55.964;37.674;2023-04-04T03:23:47;99414.28;;;7.21;97.53
69622;BME280;56841;55.964;37.674;2023-04-04T03:26:13;99425.34;;;7.25;97.11
69622;BME280;56841;55.964;37.674;2023-04-04T03:28:40;99411.22;;;7.26;97.03
69622;BME280;56841;55.964;37.674;2023-04-04T03:31:06;99423.34;;;7.27;96.63
69622;BME280;56841;55.964;37.674;2023-04-04T03:33:36;99414.19;;;7.31;96.31
69622;BME280;56841;55.964;37.674;2023-04-04T03:36:11;99417.50;;;7.33;95.82
69622;BME280;56841;55.964;37.674;2023-04-04T03:38:37;99418.78;;;7.29;96.08
69622;BME280;56841;55.964;37.674;2023-04-04T03:41:04;99425.53;;;7.31;95.89
69622;BME280;56841;55.964;37.674;2023-04-04T03:43:31;99426.91;;;7.35;95.51
69622;BME280;56841;55.964;37.674;2023-04-04T03:46:04;99428.53;;;7.36;95.10
69622;BME280;56841;55.964;37.674;2023-04-04T03:48:32;99425.75;;;7.38;94.94
69622;BME280;56841;55.964;37.674;2023-04-04T03:50:59;99423.13;;;7.38;94.84
69622;BME280;56841;55.964;37.674;2023-04-04T03:53:25;99431.69;;;7.40;94.55
69622;BME280;56841;55.964;37.674;2023-04-04T03:55:53;99430.41;;;7.44;94.49
69622;BME280;56841;55.964;37.674;2023-04-04T03:58:20;99433.53;;;7.48;93.80
69622;BME280;56841;55.964;37.674;2023-04-04T04:00:45;99431.13;;;7.54;93.47
69622;BME280;56841;55.964;37.674;2023-04-04T04:03:11;99437.72;;;7.58;93.46
69622;BME280;56841;55.964;37.674;2023-04-04T04:05:37;99430.16;;;7.55;93.44
69622;BME280;56841;55.964;37.674;2023-04-04T04:08:03;99433.00;;;7.62;92.82
69622;BME280;56841;55.964;37.674;2023-04-04T04:10:29;99439.44;;;7.68;92.52
69622;BME280;56841;55.964;37.674;2023-04-04T04:12:55;99439.66;;;7.74;91.74
69622;BME280;56841;55.964;37.674;2023-04-04T04:15:21;99430.50;;;7.78;91.43
69622;BME280;56841;55.964;37.674;2023-04-04T04:17:48;99442.19;;;7.84;91.18
69622;BME280;56841;55.964;37.674;2023-04-04T04:20:14;99440.91;;;7.88;90.89
69622;BME280;56841;55.964;37.674;2023-04-04T04:22:48;99425.50;;;7.93;90.34
69622;BME280;56841;55.964;37.674;2023-04-04T04:25:14;99434.72;;;7.97;90.15
69622;BME280;56841;55.964;37.674;2023-04-04T04:27:44;99435.38;;;7.99;89.95
69622;BME280;56841;55.964;37.674;2023-04-04T04:30:11;99437.19;;;7.99;90.06
69622;BME280;56841;55.964;37.674;2023-04-04T04:32:40;99433.63;;;8.08;89.32
69622;BME280;56841;55.964;37.674;2023-04-04T04:35:08;99427.91;;;8.13;89.35
69622;BME280;56841;55.964;37.674;2023-04-04T04:37:36;99434.53;;;8.25;88.11
69622;BME280;56841;55.964;37.674;2023-04-04T04:40:04;99433.88;;;8.23;87.71
69622;BME280;56841;55.964;37.674;2023-04-04T04:42:35;99437.22;;;8.33;87.53
69622;BME280;56841;55.964;37.674;2023-04-04T04:45:02;99434.25;;;8.36;87.10
69622;BME280;56841;55.964;37.674;2023-04-04T04:47:31;99431.34;;;8.39;87.32
69622;BME280;56841;55.964;37.674;2023-04-04T04:49:59;99436.63;;;8.39;86.41
69622;BME280;56841;55.964;37.674;2023-04-04T04:52:37;99433.88;;;8.49;86.24
69622;BME280;56841;55.964;37.674;2023-04-04T04:55:04;99437.00;;;8.52;85.99
69622;BME280;56841;55.964;37.674;2023-04-04T04:57:31;99435.72;;;8.65;85.45
69622;BME280;56841;55.964;37.674;2023-04-04T05:00:02;99435.06;;;8.63;84.85
69622;BME280;56841;55.964;37.674;2023-04-04T05:02:31;99439.03;;;8.67;84.59
69622;BME280;56841;55.964;37.674;2023-04-04T05:04:56;99438.38;;;8.73;84.48
69622;BME280;56841;55.964;37.674;2023-04-04T05:07:23;99439.03;;;8.75;84.44
69622;BME280;56841;55.964;37.674;2023-04-04T05:09:49;99437.06;;;8.69;84.48
69622;BME280;56841;55.964;37.674;2023-04-04T05:12:17;99436.75;;;8.72;84.94
69622;BME280;56841;55.964;37.674;2023-04-04T05:14:46;99437.06;;;8.69;84.52
69622;BME280;56841;55.964;37.674;2023-04-04T05:17:12;99435.91;;;8.71;84.99
69622;BME280;56841;55.964;37.674;2023-04-04T05:19:38;99428.50;;;8.75;85.19
69622;BME280;56841;55.964;37.674;2023-04-04T05:22:05;99424.09;;;8.75;84.85
69622;BME280;56841;55.964;37.674;2023-04-04T05:24:37;99428.19;;;8.78;84.64
69622;BME280;56841;55.964;37.674;2023-04-04T05:27:03;99420.97;;;8.80;84.97
69622;BME280;56841;55.964;37.674;2023-04-04T05:29:35;99421.28;;;8.77;85.03
69622;BME280;56841;55.964;37.674;2023-04-04T05:32:02;99425.91;;;8.83;85.04
69622;BME280;56841;55.964;37.674;2023-04-04T05:34:28;99425.75;;;8.85;85.04
69622;BME280;56841;55.964;37.674;2023-04-04T05:36:55;99423.09;;;8.85;84.79
69622;BME280;56841;55.964;37.674;2023-04-04T05:39:21;99420.47;;;8.85;85.09
69622;BME280;56841;55.964;37.674;2023-04-04T05:42:07;99417.38;;;8.89;84.76
69622;BME280;56841;55.964;37.674;2023-04-04T05:44:38;99409.31;;;8.91;84.00
69622;BME280;56841;55.964;37.674;2023-04-04T05:47:05;99417.88;;;8.93;83.84
69622;BME280;56841;55.964;37.674;2023-04-04T05:49:32;99422.16;;;8.94;83.87
69622;BME280;56841;55.964;37.674;2023-04-04T05:52:00;99414.25;;;8.94;84.00
69622;BME280;56841;55.964;37.674;2023-04-04T05:54:27;99419.03;;;9.23;83.89
69622;BME280;56841;55.964;37.674;2023-04-04T05:56:54;99418.56;;;9.36;83.11
69622;BME280;56841;55.964;37.674;2023-04-04T05:59:42;99421.38;;;9.42;82.45
69622;BME280;56841;55.964;37.674;2023-04-04T06:02:12;99424.50;;;9.62;80.92
69622;BME280;56841;55.964;37.674;2023-04-04T06:04:41;99419.22;;;9.79;80.10
69622;BME280;56841;55.964;37.674;2023-04-04T06:07:17;99419.84;;;9.81;79.32
69622;BME280;56841;55.964;37.674;2023-04-04T06:09:46;99413.44;;;9.75;79.66
69622;BME280;56841;55.964;37.674;2023-04-04T06:12:12;99416.56;;;9.70;79.78
69622;BME280;56841;55.964;37.674;2023-04-04T06:14:38;99422.00;;;9.77;79.28
69622;BME280;56841;55.964;37.674;2023-04-04T06:17:05;99423.34;;;9.65;80.58
69622;BME280;56841;55.964;37.674;2023-04-04T06:19:31;99426.47;;;9.68;79.66
69622;BME280;56841;55.964;37.674;2023-04-04T06:21:57;99423.34;;;9.57;79.60
69622;BME280;56841;55.964;37.674;2023-04-04T06:24:23;99427.97;;;9.55;80.13
69622;BME280;56841;55.964;37.674;2023-04-04T06:26:50;99421.19;;;9.68;80.40
69622;BME280;56841;55.964;37.674;2023-04-04T06:29:20;99415.41;;;9.73;79.59
69622;BME280;56841;55.964;37.674;2023-04-04T06:31:46;99423.31;;;9.73;79.81
69622;BME280;56841;55.964;37.674;2023-04-04T06:34:20;99423.34;;;9.65;80.57
69622;BME280;56841;55.964;37.674;2023-04-04T06:36:55;99426.59;;;9.83;78.79
69622;BME280;56841;55.964;37.674;2023-04-04T06:39:24;99423.66;;;9.78;79.34
69622;BME280;56841;55.964;37.674;2023-04-04T06:41:52;99421.97;;;9.93;78.82
69622;BME280;56841;55.964;37.674;2023-04-04T06:44:25;99428.72;;;9.88;77.58
69622;BME280;56841;55.964;37.674;2023-04-04T06:46:51;99420.44;;;10.07;77.67
69622;BME280;56841;55.964;37.674;2023-04-04T06:49:18;99427.31;;;10.25;76.51
69622;BME280;56841;55.964;37.674;2023-04-04T06:51:44;99422.22;;;10.39;75.40
69622;BME280;56841;55.964;37.674;2023-04-04T06:54:10;99422.69;;;10.43;74.81
69622;BME280;56841;55.964;37.674;2023-04-04T06:56:35;99427.50;;;10.39;75.50
69622;BME280;56841;55.964;37.674;2023-04-04T06:59:02;99419.34;;;10.49;74.53
69622;BME280;56841;55.964;37.674;2023-04-04T07:01:28;99419.13;;;10.67;73.67
69622;BME280;56841;55.964;37.674;2023-04-04T07:03:53;99418.53;;;10.80;73.17
69622;BME280;56841;55.964;37.674;2023-04-04T07:06:22;99421.63;;;10.91;73.39
69622;BME280;56841;55.964;37.674;2023-04-04T07:08:51;99420.88;;;11.06;72.65
69622;BME280;56841;55.964;37.674;2023-04-04T07:11:17;99420.16;;;11.12;71.86
69622;BME280;56841;55.964;37.674;2023-04-04T07:13:43;99415.13;;;11.25;72.39
69622;BME280;56841;55.964;37.674;2023-04-04T07:16:09;99418.97;;;11.37;71.50
69622;BME280;56841;55.964;37.674;2023-04-04T07:18:36;99422.69;;;11.28;72.26
69622;BME280;56841;55.964;37.674;2023-04-04T07:21:02;99428.34;;;11.25;71.69
69622;BME280;56841;55.964;37.674;2023-04-04T07:23:27;99421.22;;;11.26;72.28
69622;BME280;56841;55.964;37.674;2023-04-04T07:25:53;99428.91;;;11.35;72.06
69622;BME280;56841;55.964;37.674;2023-04-04T07:28:19;99418.72;;;11.47;71.30
69622;BME280;56841;55.964;37.674;2023-04-04T07:30:45;99437.22;;;11.70;71.41
69622;BME280;56841;55.964;37.674;2023-04-04T07:33:11;99432.00;;;12.00;70.69
69622;BME280;56841;55.964;37.674;2023-04-04T07:35:37;99435.28;;;12.02;69.85
69622;BME280;56841;55.964;37.674;2023-04-04T07:38:02;99430.66;;;12.04;69.69
69622;BME280;56841;55.964;37.674;2023-04-04T07:40:29;99434.00;;;12.13;69.32
69622;BME280;56841;55.964;37.674;2023-04-04T07:42:55;99431.19;;;12.29;68.88
69622;BME280;56841;55.964;37.674;2023-04-04T07:45:20;99425.88;;;12.44;68.34
69622;BME280;56841;55.964;37.674;2023-04-04T07:47:49;99429.88;;;12.54;67.72
69622;BME280;56841;55.964;37.674;2023-04-04T07:50:15;99432.88;;;12.66;67.17
69622;BME280;56841;55.964;37.674;2023-04-04T07:52:41;99431.34;;;12.72;66.70
69622;BME280;56841;55.964;37.674;2023-04-04T07:55:07;99432.94;;;12.88;65.79
69622;BME280;56841;55.964;37.674;2023-04-04T07:57:38;99430.34;;;12.94;65.06
69622;BME280;56841;55.964;37.674;2023-04-04T08:00:07;99426.00;;;13.08;65.17
69622;BME280;56841;55.964;37.674;2023-04-04T08:02:39;99427.09;;;13.14;64.89
69622;BME280;56841;55.964;37.674;2023-04-04T08:05:06;99427.06;;;13.28;64.01
69622;BME280;56841;55.964;37.674;2023-04-04T08:07:32;99429.63;;;13.43;63.54
69622;BME280;56841;55.964;37.674;2023-04-04T08:09:58;99428.22;;;13.41;63.83
69622;BME280;56841;55.964;37.674;2023-04-04T08:12:23;99430.66;;;13.42;64.10
69622;BME280;56841;55.964;37.674;2023-04-04T08:14:49;99435.34;;;13.40;63.89
69622;BME280;56841;55.964;37.674;2023-04-04T08:17:15;99430.47;;;13.44;63.51
69622;BME280;56841;55.964;37.674;2023-04-04T08:19:43;99431.78;;;13.55;63.01
69622;BME280;56841;55.964;37.674;2023-04-04T08:22:09;99426.28;;;13.56;62.86
69622;BME280;56841;55.964;37.674;2023-04-04T08:24:35;99425.38;;;13.70;62.50
69622;BME280;56841;55.964;37.674;2023-04-04T08:27:01;99427.03;;;13.71;62.48
69622;BME280;56841;55.964;37.674;2023-04-04T08:29:27;99430.25;;;13.67;62.66
69622;BME280;56841;55.964;37.674;2023-04-04T08:31:53;99431.25;;;13.66;63.31
69622;BME280;56841;55.964;37.674;2023-04-04T08:34:20;99430.94;;;13.75;62.71
69622;BME280;56841;55.964;37.674;2023-04-04T08:36:48;99426.72;;;13.88;63.05
69622;BME280;56841;55.964;37.674;2023-04-04T08:39:14;99427.47;;;13.75;63.07
69622;BME280;56841;55.964;37.674;2023-04-04T08:41:42;99423.50;;;13.64;62.93
69622;BME280;56841;55.964;37.674;2023-04-04T08:44:15;99423.94;;;13.46;63.90
69622;BME280;56841;55.964;37.674;2023-04-04T08:46:43;99419.47;;;13.25;64.54
69622;BME280;56841;55.964;37.674;2023-04-04T08:49:15;99423.69;;;13.20;64.94
69622;BME280;56841;55.964;37.674;2023-04-04T08:51:42;99417.31;;;12.93;65.99
69622;BME280;56841;55.964;37.674;2023-04-04T08:54:10;99422.84;;;12.98;66.62
69622;BME280;56841;55.964;37.674;2023-04-04T08:56:37;99423.84;;;12.75;66.63
69622;BME280;56841;55.964;37.674;2023-04-04T08:59:03;99430.25;;;12.66;65.83
69622;BME280;56841;55.964;37.674;2023-04-04T09:01:29;99417.53;;;12.76;65.90
69622;BME280;56841;55.964;37.674;2023-04-04T09:03:59;99411.84;;;12.79;65.22
69622;BME280;56841;55.964;37.674;2023-04-04T09:06:26;99415.88;;;12.75;64.81
69622;BME280;56841;55.964;37.674;2023-04-04T09:08:52;99426.84;;;12.72;65.12
69622;BME280;56841;55.964;37.674;2023-04-04T09:11:20;99429.22;;;12.67;64.85
69622;BME280;56841;55.964;37.674;2023-04-04T09:13:48;99425.56;;;12.68;65.42
69622;BME280;56841;55.964;37.674;2023-04-04T09:16:15;99420.63;;;13.01;65.25
69622;BME280;56841;55.964;37.674;2023-04-04T09:18:42;99431.44;;;13.00;65.03
69622;BME280;56841;55.964;37.674;2023-04-04T09:21:09;99426.25;;;13.28;65.08
69622;BME280;56841;55.964;37.674;2023-04-04T09:23:36;99430.22;;;13.88;63.22
69622;BME280;56841;55.964;37.674;2023-04-04T09:26:02;99424.88;;;13.60;62.90
69622;BME280;56841;55.964;37.674;2023-04-04T09:28:28;99430.53;;;13.50;63.90
69622;BME280;56841;55.964;37.674;2023-04-04T09:30:54;99428.09;;;13.27;64.38
69622;BME280;56841;55.964;37.674;2023-04-04T09:33:20;99429.81;;;13.20;64.05
69622;BME280;56841;55.964;37.674;2023-04-04T09:35:51;99435.09;;;13.35;64.28
69622;BME280;56841;55.964;37.674;2023-04-04T09:38:23;99435.09;;;13.85;62.00
69622;BME280;56841;55.964;37.674;2023-04-04T09:40:49;99429.09;;;13.76;62.10
69622;BME280;56841;55.964;37.674;2023-04-04T09:43:15;99434.16;;;13.99;61.38
69622;BME280;56841;55.964;37.674;2023-04-04T09:45:44;99427.16;;;14.54;59.69
69622;BME280;56841;55.964;37.674;2023-04-04T09:48:10;99433.41;;;14.88;58.56
69622;BME280;56841;55.964;37.674;2023-04-04T09:50:44;99432.84;;;15.06;58.17
69622;BME280;56841;55.964;37.674;2023-04-04T09:53:17;99432.28;;;15.30;57.34
69622;BME280;56841;55.964;37.674;2023-04-04T09:55:49;99442.31;;;15.61;56.85
69622;BME280;56841;55.964;37.674;2023-04-04T09:58:24;99439.66;;;15.55;56.44
69622;BME280;56841;55.964;37.674;2023-04-04T10:00:53;99436.38;;;15.26;56.92
69622;BME280;56841;55.964;37.674;2023-04-04T10:03:21;99437.91;;;14.87;58.06
69622;BME280;56841;55.964;37.674;2023-04-04T10:05:54;99434.22;;;14.82;58.09
69622;BME280;56841;55.964;37.674;2023-04-04T10:08:22;99437.66;;;14.34;58.58
69622;BME280;56841;55.964;37.674;2023-04-04T10:13:28;99436.03;;;14.75;58.43
69622;BME280;56841;55.964;37.674;2023-04-04T10:15:59;99437.94;;;15.07;56.69
69622;BME280;56841;55.964;37.674;2023-04-04T10:18:28;99433.72;;;15.33;54.94
69622;BME280;56841;55.964;37.674;2023-04-04T10:20:56;99425.34;;;15.49;54.48
69622;BME280;56841;55.964;37.674;2023-04-04T10:23:23;99425.97;;;15.78;54.29
69622;BME280;56841;55.964;37.674;2023-04-04T10:25:55;99429.84;;;16.08;51.81
69622;BME280;56841;55.964;37.674;2023-04-04T10:28:22;99426.72;;;16.25;50.46
69622;BME280;56841;55.964;37.674;2023-04-04T10:31:05;99426.25;;;16.48;49.54
69622;BME280;56841;55.964;37.674;2023-04-04T10:36:29;99431.22;;;16.38;49.14
69622;BME280;56841;55.964;37.674;2023-04-04T10:39:04;99431.84;;;16.26;50.05
69622;BME280;56841;55.964;37.674;2023-04-04T10:41:31;99432.66;;;16.27;50.50
69622;BME280;56841;55.964;37.674;2023-04-04T10:44:00;99432.22;;;16.30;51.30
69622;BME280;56841;55.964;37.674;2023-04-04T10:46:32;99433.06;;;16.30;51.66
69622;BME280;56841;55.964;37.674;2023-04-04T10:49:00;99437.16;;;16.26;51.61
69622;BME280;56841;55.964;37.674;2023-04-04T10:51:26;99442.09;;;16.23;51.84
69622;BME280;56841;55.964;37.674;2023-04-04T10:53:54;99438.84;;;16.21;51.53
69622;BME280;56841;55.964;37.674;2023-04-04T10:56:21;99446.81;;;16.27;51.51
69622;BME280;56841;55.964;37.674;2023-04-04T10:58:48;99448.44;;;16.35;51.28
69622;BME280;56841;55.964;37.674;2023-04-04T11:01:14;99456.00;;;16.38;51.15
69622;BME280;56841;55.964;37.674;2023-04-04T11:04:16;99451.06;;;16.48;50.51
69622;BME280;56841;55.964;37.674;2023-04-04T11:07:17;99442.41;;;16.53;50.58
69622;BME280;56841;55.964;37.674;2023-04-04T11:12:30;99448.06;;;16.18;51.53
69622;BME280;56841;55.964;37.674;2023-04-04T11:17:43;99436.63;;;15.98;51.95
69622;BME280;56841;55.964;37.674;2023-04-04T11:20:15;99434.19;;;15.83;52.10
69622;BME280;56841;55.964;37.674;2023-04-04T11:22:42;99435.81;;;15.97;52.26
69622;BME280;56841;55.964;37.674;2023-04-04T11:27:55;99431.47;;;16.09;51.48
69622;BME280;56841;55.964;37.674;2023-04-04T11:30:23;99438.06;;;15.94;51.28
69622;BME280;56841;55.964;37.674;2023-04-04T11:32:49;99436.63;;;15.98;51.13
69622;BME280;56841;55.964;37.674;2023-04-04T11:35:16;99440.09;;;15.92;51.35
69622;BME280;56841;55.964;37.674;2023-04-04T11:40:18;99443.94;;;16.29;49.96
69622;BME280;56841;55.964;37.674;2023-04-04T11:42:50;99434.06;;;16.43;48.96
69622;BME280;56841;55.964;37.674;2023-04-04T11:45:18;99431.28;;;16.69;48.67
69622;BME280;56841;55.964;37.674;2023-04-04T11:47:48;99435.78;;;16.82;48.88
69622;BME280;56841;55.964;37.674;2023-04-04T11:50:15;99432.66;;;16.85;48.50
69622;BME280;56841;55.964;37.674;2023-04-04T11:52:41;99442.75;;;16.11;49.71
69622;BME280;56841;55.964;37.674;2023-04-04T11:57:40;99444.16;;;15.48;52.08
69622;BME280;56841;55.964;37.674;2023-04-04T12:00:07;99440.06;;;15.32;52.50
69622;BME280;56841;55.964;37.674;2023-04-04T12:02:35;99443.72;;;15.24;52.51
69622;BME280;56841;55.964;37.674;2023-04-04T12:05:03;99437.13;;;15.07;52.71
69622;BME280;56841;55.964;37.674;2023-04-04T12:07:33;99447.22;;;15.25;52.58
69622;BME280;56841;55.964;37.674;2023-04-04T12:09:59;99439.44;;;15.30;53.30
69622;BME280;56841;55.964;37.674;2023-04-04T12:12:26;99447.63;;;15.35;55.21
69622;BME280;56841;55.964;37.674;2023-04-04T12:14:53;99446.38;;;15.24;56.52
69622;BME280;56841;55.964;37.674;2023-04-04T12:17:19;99443.69;;;15.11;57.57
69622;BME280;56841;55.964;37.674;2023-04-04T12:19:46;99442.66;;;15.05;56.83
69622;BME280;56841;55.964;37.674;2023-04-04T12:22:12;99439.59;;;15.02;57.30
69622;BME280;56841;55.964;37.674;2023-04-04T12:24:37;99447.25;;;14.77;58.28
69622;BME280;56841;55.964;37.674;2023-04-04T12:27:04;99452.97;;;14.67;58.81
69622;BME280;56841;55.964;37.674;2023-04-04T12:29:31;99447.63;;;14.60;59.11
69622;BME280;56841;55.964;37.674;2023-04-04T12:32:03;99452.63;;;14.49;59.53
69622;BME280;56841;55.964;37.674;2023-04-04T12:34:32;99459.50;;;14.64;59.39
69622;BME280;56841;55.964;37.674;2023-04-04T12:37:00;99459.09;;;14.67;58.96
69622;BME280;56841;55.964;37.674;2023-04-04T12:39:27;99460.94;;;14.67;58.93
69622;BME280;56841;55.964;37.674;2023-04-04T12:41:56;99468.69;;;14.68;58.68
69622;BME280;56841;55.964;37.674;2023-04-04T12:46:56;99473.34;;;14.53;59.26
69622;BME280;56841;55.964;37.674;2023-04-04T12:52:04;99470.75;;;14.38;59.63
69622;BME280;56841;55.964;37.674;2023-04-04T12:54:34;99472.25;;;14.13;60.48
69622;BME280;56841;55.964;37.674;2023-04-04T12:57:02;99476.75;;;14.12;60.43
69622;BME280;56841;55.964;37.674;2023-04-04T12:59:30;99473.34;;;13.97;60.92
69622;BME280;56841;55.964;37.674;2023-04-04T13:01:57;99485.44;;;13.99;60.86
69622;BME280;56841;55.964;37.674;2023-04-04T13:04:25;99478.06;;;14.02;60.38
69622;BME280;56841;55.964;37.674;2023-04-04T13:06:54;99479.34;;;14.06;60.32
69622;BME280;56841;55.964;37.674;2023-04-04T13:09:22;99483.09;;;13.90;60.88
69622;BME280;56841;55.964;37.674;2023-04-04T13:15:11;99484.38;;;13.72;61.23
69622;BME280;56841;55.964;37.674;2023-04-04T13:17:11;99493.53;;;13.70;61.32
69622;BME280;56841;55.964;37.674;2023-04-04T13:19:38;99493.03;;;13.60;61.61
69622;BME280;56841;55.964;37.674;2023-04-04T13:22:07;99494.81;;;13.52;62.23
69622;BME280;56841;55.964;37.674;2023-04-04T13:24:33;99498.50;;;13.51;62.11
69622;BME280;56841;55.964;37.674;2023-04-04T13:26:59;99507.63;;;13.49;62.18